Time;durP1;ratioP1;P1;durP2;ratioP2;P2;SDS_P1;SDS_P2;PMS_P1;PMS_P2;Temp;Humidity;BMP_temperature;BMP_pressure;BME280_temperature;BME280_humidity;BME280_pressure;Samples;Min_cycle;Max_cycle;Signal;HPM_P1;HPM_P2
2023/10/13 00:01:54;;;;;;;0.40;0.40;;;;;;;;;;5014115;28;20646;-86
2023/10/13 00:04:24;;;;;;;0.40;0.40;;;;;;;;;;5014791;28;20580;-86
2023/10/13 00:06:56;;;;;;;0.40;0.40;;;;;;;;;;4996849;28;20180;-86
2023/10/13 00:09:32;;;;;;;0.50;0.50;;;;;;;;;;5014570;28;20172;-87
2023/10/13 00:11:58;;;;;;;0.60;0.60;;;;;;;;;;5014060;28;20192;-86
2023/10/13 00:14:33;;;;;;;0.40;0.40;;;;;;;;;;4997090;28;20649;-86
2023/10/13 00:17:05;;;;;;;0.50;0.50;;;;;;;;;;4996791;28;20167;-87
2023/10/13 00:19:38;;;;;;;0.50;0.50;;;;;;;;;;4997587;28;20188;-87
2023/10/13 00:22:10;;;;;;;0.50;0.50;;;;;;;;;;5039391;28;20184;-87
2023/10/13 00:24:42;;;;;;;0.50;0.50;;;;;;;;;;5039491;28;20164;-87
2023/10/13 00:27:13;;;;;;;0.40;0.40;;;;;;;;;;5022187;28;20263;-87
2023/10/13 00:29:43;;;;;;;0.40;0.40;;;;;;;;;;5018927;28;20177;-87
2023/10/13 00:32:12;;;;;;;0.50;0.50;;;;;;;;;;5013488;28;20189;-86
2023/10/13 00:34:38;;;;;;;0.50;0.50;;;;;;;;;;4996391;28;20172;-87
2023/10/13 00:37:27;;;;;;;0.50;0.50;;;;;;;;;;5013971;28;20173;-88
2023/10/13 00:39:56;;;;;;;0.50;0.50;;;;;;;;;;5013911;28;20180;-86
2023/10/13 00:42:50;;;;;;;0.50;0.50;;;;;;;;;;4995732;28;20192;-86
2023/10/13 00:45:17;;;;;;;0.50;0.50;;;;;;;;;;5013300;28;20200;-86
2023/10/13 00:47:50;;;;;;;0.50;0.50;;;;;;;;;;5013323;28;20662;-87
2023/10/13 00:50:17;;;;;;;0.50;0.50;;;;;;;;;;4995990;28;20259;-87
2023/10/13 00:52:46;;;;;;;0.40;0.40;;;;;;;;;;5013531;28;20188;-86
2023/10/13 00:55:14;;;;;;;0.30;0.30;;;;;;;;;;5013438;28;20672;-87
2023/10/13 00:57:40;;;;;;;0.40;0.40;;;;;;;;;;4995977;28;20373;-87
2023/10/13 01:00:19;;;;;;;0.40;0.40;;;;;;;;;;4995451;28;20195;-86
2023/10/13 01:02:57;;;;;;;0.40;0.40;;;;;;;;;;4995442;28;20270;-88
2023/10/13 01:05:23;;;;;;;0.50;0.50;;;;;;;;;;5011423;28;20203;-87
2023/10/13 01:07:54;;;;;;;0.60;0.60;;;;;;;;;;5013019;28;20311;-87
2023/10/13 01:10:25;;;;;;;0.67;0.67;;;;;;;;;;5013098;28;20200;-86
2023/10/13 01:12:52;;;;;;;0.40;0.40;;;;;;;;;;4979760;28;20213;-87
2023/10/13 01:15:22;;;;;;;0.50;0.50;;;;;;;;;;4995487;28;20180;-87
2023/10/13 01:17:50;;;;;;;0.43;0.43;;;;;;;;;;5013354;28;20175;-86
2023/10/13 01:20:26;;;;;;;0.40;0.40;;;;;;;;;;5027902;28;20187;-87
2023/10/13 01:22:55;;;;;;;0.50;0.50;;;;;;;;;;5018857;28;20563;-86
2023/10/13 01:25:28;;;;;;;0.50;0.50;;;;;;;;;;5015065;28;20198;-86
2023/10/13 01:27:55;;;;;;;0.40;0.40;;;;;;;;;;4996423;28;20709;-87
2023/10/13 01:30:24;;;;;;;0.50;0.50;;;;;;;;;;5014362;28;20185;-87
2023/10/13 01:32:54;;;;;;;0.50;0.50;;;;;;;;;;5013428;28;20207;-87
2023/10/13 01:35:26;;;;;;;0.40;0.40;;;;;;;;;;5013308;28;20180;-86
2023/10/13 01:37:52;;;;;;;0.50;0.50;;;;;;;;;;4995795;28;20172;-86
2023/10/13 01:40:20;;;;;;;0.60;0.60;;;;;;;;;;5013315;28;20176;-86
2023/10/13 01:42:55;;;;;;;0.60;0.60;;;;;;;;;;5012949;28;20196;-86
2023/10/13 01:45:21;;;;;;;0.43;0.43;;;;;;;;;;5012923;28;20184;-87
2023/10/13 01:47:50;;;;;;;0.40;0.40;;;;;;;;;;4995271;28;20208;-86
2023/10/13 01:50:29;;;;;;;0.40;0.40;;;;;;;;;;5013063;28;20575;-86
2023/10/13 01:53:11;;;;;;;0.50;0.50;;;;;;;;;;5012837;28;20192;-86
2023/10/13 01:55:44;;;;;;;0.40;0.40;;;;;;;;;;5013473;28;20176;-86
2023/10/13 01:58:17;;;;;;;0.40;0.40;;;;;;;;;;5012904;28;20180;-86
2023/10/13 02:00:44;;;;;;;0.40;0.40;;;;;;;;;;5012454;28;20223;-86
2023/10/13 02:03:17;;;;;;;0.50;0.50;;;;;;;;;;5012817;28;20212;-86
2023/10/13 02:05:47;;;;;;;0.40;0.40;;;;;;;;;;5012942;28;20256;-86
2023/10/13 02:08:25;;;;;;;0.40;0.40;;;;;;;;;;5012887;28;20212;-86
2023/10/13 02:10:55;;;;;;;0.40;0.40;;;;;;;;;;5012230;28;20184;-86
2023/10/13 02:13:22;;;;;;;0.40;0.40;;;;;;;;;;5013178;28;20266;-87
2023/10/13 02:15:51;;;;;;;0.40;0.40;;;;;;;;;;5012970;28;20176;-86
2023/10/13 02:18:26;;;;;;;0.60;0.60;;;;;;;;;;4995582;28;20192;-86
2023/10/13 02:20:55;;;;;;;0.50;0.50;;;;;;;;;;5012529;28;20199;-86
2023/10/13 02:23:21;;;;;;;0.50;0.50;;;;;;;;;;5012483;28;20226;-86
2023/10/13 02:25:48;;;;;;;0.43;0.43;;;;;;;;;;4995539;28;20275;-86
2023/10/13 02:28:14;;;;;;;0.50;0.50;;;;;;;;;;4994937;28;20208;-86
2023/10/13 02:30:44;;;;;;;0.50;0.50;;;;;;;;;;5012726;28;20185;-86
2023/10/13 02:33:11;;;;;;;0.40;0.40;;;;;;;;;;5012873;28;20208;-86
2023/10/13 02:35:41;;;;;;;0.30;0.30;;;;;;;;;;5013007;28;20251;-86
2023/10/13 02:38:11;;;;;;;0.50;0.50;;;;;;;;;;5012722;28;20181;-85
2023/10/13 02:40:37;;;;;;;0.40;0.40;;;;;;;;;;5013022;28;20184;-85
2023/10/13 02:43:04;;;;;;;0.50;0.50;;;;;;;;;;5013338;28;20708;-86
2023/10/13 02:45:30;;;;;;;0.50;0.50;;;;;;;;;;4998995;28;20173;-86
2023/10/13 02:48:17;;;;;;;0.60;0.60;;;;;;;;;;5016363;28;20231;-86
2023/10/13 02:50:44;;;;;;;0.60;0.60;;;;;;;;;;5016420;28;20167;-86
2023/10/13 02:53:13;;;;;;;0.50;0.50;;;;;;;;;;4999457;28;20208;-87
2023/10/13 02:55:49;;;;;;;0.50;0.50;;;;;;;;;;5041262;28;20436;-86
2023/10/13 02:58:15;;;;;;;0.50;0.50;;;;;;;;;;5040866;28;20168;-85
2023/10/13 03:00:41;;;;;;;0.60;0.60;;;;;;;;;;5040343;28;20212;-86
2023/10/13 03:03:07;;;;;;;0.60;0.60;;;;;;;;;;5022007;28;20195;-87
2023/10/13 03:05:39;;;;;;;0.60;0.60;;;;;;;;;;5022957;28;20175;-86
2023/10/13 03:08:06;;;;;;;0.40;0.40;;;;;;;;;;5027489;28;20291;-85
2023/10/13 03:10:33;;;;;;;0.50;0.50;;;;;;;;;;5016068;28;20189;-87
2023/10/13 03:12:59;;;;;;;0.50;0.50;;;;;;;;;;5027947;28;20247;-87
2023/10/13 03:15:31;;;;;;;0.50;0.50;;;;;;;;;;5019044;28;20177;-87
2023/10/13 03:18:01;;;;;;;0.50;0.50;;;;;;;;;;5001183;28;20173;-87
2023/10/13 03:20:33;;;;;;;0.50;0.50;;;;;;;;;;4997797;28;20254;-87
2023/10/13 03:22:59;;;;;;;0.50;0.50;;;;;;;;;;4997905;28;20199;-87
2023/10/13 03:30:21;;;;;;;0.43;0.43;;;;;;;;;;5015499;28;20176;-87
2023/10/13 03:32:55;;;;;;;0.50;0.50;;;;;;;;;;5015190;28;20254;-87
2023/10/13 03:35:24;;;;;;;0.60;0.60;;;;;;;;;;5015699;28;20268;-87
2023/10/13 03:37:54;;;;;;;0.50;0.50;;;;;;;;;;4997552;28;20564;-87
2023/10/13 03:45:39;;;;;;;0.50;0.50;;;;;;;;;;5015901;28;20203;-86
2023/10/13 03:51:06;;;;;;;0.70;0.70;;;;;;;;;;5015039;28;20650;-87
2023/10/13 03:53:36;;;;;;;0.60;0.60;;;;;;;;;;5015422;28;20180;-87
2023/10/13 03:56:12;;;;;;;0.40;0.40;;;;;;;;;;5016706;28;20192;-87
2023/10/13 03:58:42;;;;;;;0.60;0.60;;;;;;;;;;4999063;28;20600;-88
2023/10/13 04:01:12;;;;;;;0.60;0.60;;;;;;;;;;5025502;28;20207;-87
2023/10/13 04:03:39;;;;;;;0.57;0.57;;;;;;;;;;5035062;28;20153;-87
2023/10/13 04:06:16;;;;;;;0.60;0.60;;;;;;;;;;5010679;28;20176;-87
2023/10/13 04:09:51;;;;;;;0.53;0.53;;;;;;;;;;5037014;28;20216;-87
2023/10/13 04:11:52;;;;;;;0.50;0.50;;;;;;;;;;5038442;28;20222;-88
2023/10/13 04:14:52;;;;;;;0.60;0.60;;;;;;;;;;5038843;28;20255;-87
2023/10/13 04:17:13;;;;;;;0.60;0.60;;;;;;;;;;5038327;28;20203;-87
2023/10/13 04:20:12;;;;;;;0.50;0.50;;;;;;;;;;5037878;28;20173;-87
2023/10/13 04:23:17;;;;;;;0.70;0.70;;;;;;;;;;5036966;28;20200;-87
2023/10/13 04:25:52;;;;;;;0.43;0.43;;;;;;;;;;5031598;28;20184;-87
2023/10/13 04:36:14;;;;;;;0.60;0.60;;;;;;;;;;5015686;28;20208;-86
2023/10/13 04:49:29;;;;;;;0.60;0.60;;;;;;;;;;5028891;28;20216;-87
2023/10/13 04:51:59;;;;;;;0.60;0.60;;;;;;;;;;5029042;28;20207;-87
2023/10/13 04:54:26;;;;;;;0.60;0.60;;;;;;;;;;5030356;28;20196;-87
2023/10/13 04:56:59;;;;;;;0.60;0.60;;;;;;;;;;5007660;28;20243;-87
2023/10/13 05:00:43;;;;;;;0.50;0.50;;;;;;;;;;5031962;28;20177;-87
2023/10/13 06:29:53;;;;;;;0.50;0.50;;;;;;;;;;5026655;28;20204;-90
2023/10/13 06:32:19;;;;;;;0.43;0.43;;;;;;;;;;5028362;28;20258;-88
2023/10/13 06:34:46;;;;;;;0.50;0.50;;;;;;;;;;5030243;28;20188;-88
2023/10/13 06:37:30;;;;;;;0.40;0.40;;;;;;;;;;5028003;28;20184;-89
2023/10/13 06:43:16;;;;;;;0.40;0.40;;;;;;;;;;5020205;28;20239;-88
2023/10/13 06:45:43;;;;;;;0.40;0.40;;;;;;;;;;5029478;28;20173;-87
2023/10/13 06:48:14;;;;;;;0.60;0.60;;;;;;;;;;5006345;28;20201;-88
2023/10/13 06:50:41;;;;;;;0.30;0.30;;;;;;;;;;5033699;28;20267;-86
2023/10/13 06:53:08;;;;;;;0.50;0.50;;;;;;;;;;5026412;28;20264;-88
2023/10/13 06:55:39;;;;;;;0.30;0.30;;;;;;;;;;5032273;28;20184;-86
2023/10/13 06:58:06;;;;;;;0.30;0.30;;;;;;;;;;5017532;28;20180;-85
2023/10/13 07:00:37;;;;;;;0.40;0.40;;;;;;;;;;5036579;28;20195;-86
2023/10/13 07:03:17;;;;;;;0.40;0.40;;;;;;;;;;5035972;28;20232;-87
2023/10/13 07:05:44;;;;;;;0.33;0.33;;;;;;;;;;5035074;28;20184;-86
2023/10/13 07:08:14;;;;;;;0.30;0.30;;;;;;;;;;5037428;28;20282;-86
2023/10/13 07:13:36;;;;;;;0.30;0.30;;;;;;;;;;5035617;28;20188;-88
2023/10/13 07:16:07;;;;;;;0.37;0.37;;;;;;;;;;5033559;28;20191;-88
2023/10/13 07:18:37;;;;;;;0.30;0.30;;;;;;;;;;5015384;28;20712;-87
2023/10/13 07:21:09;;;;;;;0.50;0.50;;;;;;;;;;5034189;28;20176;-87
2023/10/13 07:23:36;;;;;;;0.50;0.50;;;;;;;;;;5033565;28;20191;-88
2023/10/13 07:26:05;;;;;;;0.40;0.40;;;;;;;;;;5033606;28;20184;-86
2023/10/13 07:28:31;;;;;;;0.50;0.50;;;;;;;;;;5015143;28;20211;-86
2023/10/13 07:33:26;;;;;;;0.53;0.53;;;;;;;;;;5031932;28;20164;-89
2023/10/13 07:36:15;;;;;;;0.53;0.53;;;;;;;;;;5030670;28;20594;-86
2023/10/13 07:38:48;;;;;;;0.47;0.47;;;;;;;;;;5003673;28;20187;-87
2023/10/13 07:41:15;;;;;;;0.60;0.60;;;;;;;;;;5014432;28;20189;-87
2023/10/13 07:43:42;;;;;;;0.60;0.60;;;;;;;;;;5025060;28;20189;-85
2023/10/13 07:46:15;;;;;;;0.60;0.60;;;;;;;;;;5029859;28;20176;-88
2023/10/13 07:48:41;;;;;;;0.60;0.60;;;;;;;;;;5030910;28;20204;-87
2023/10/13 07:51:18;;;;;;;0.63;0.63;;;;;;;;;;5030865;28;20203;-88
2023/10/13 07:53:44;;;;;;;0.60;0.60;;;;;;;;;;4998270;28;20184;-86
2023/10/13 07:56:11;;;;;;;0.60;0.60;;;;;;;;;;5023330;28;20191;-88
2023/10/13 07:58:52;;;;;;;0.20;0.20;;;;;;;;;;5026770;28;20232;-88
2023/10/13 08:01:18;;;;;;;0.50;0.50;;;;;;;;;;5024887;28;20196;-87
2023/10/13 08:03:44;;;;;;;0.43;0.43;;;;;;;;;;5027307;28;20187;-86
2023/10/13 08:08:40;;;;;;;0.50;0.50;;;;;;;;;;5028858;28;20272;-85
2023/10/13 08:11:24;;;;;;;0.40;0.40;;;;;;;;;;5029668;28;20200;-88
2023/10/13 08:13:54;;;;;;;0.40;0.40;;;;;;;;;;5008964;28;20192;-87
2023/10/13 08:16:29;;;;;;;0.45;0.45;;;;;;;;;;5026265;28;20215;-87
2023/10/13 08:18:55;;;;;;;0.43;0.43;;;;;;;;;;5028239;28;20176;-86
2023/10/13 08:21:25;;;;;;;0.30;0.30;;;;;;;;;;5010215;28;20203;-87
2023/10/13 08:26:29;;;;;;;0.30;0.30;;;;;;;;;;5026294;28;20187;-87
2023/10/13 08:28:56;;;;;;;0.25;0.25;;;;;;;;;;5005625;28;20246;-87
2023/10/13 08:31:24;;;;;;;0.20;0.20;;;;;;;;;;5004756;28;20312;-86
2023/10/13 08:34:03;;;;;;;0.38;0.38;;;;;;;;;;5006876;28;20184;-87
2023/10/13 08:36:31;;;;;;;0.10;0.10;;;;;;;;;;5008068;28;20174;-86
2023/10/13 08:38:57;;;;;;;0.20;0.20;;;;;;;;;;5010150;28;20245;-86
2023/10/13 08:43:53;;;;;;;0.10;0.10;;;;;;;;;;5021069;28;20177;-89
2023/10/13 08:46:28;;;;;;;0.20;0.20;;;;;;;;;;5022914;28;20180;-87
2023/10/13 08:49:39;;;;;;;0.20;0.20;;;;;;;;;;5006780;28;20203;-87
2023/10/13 08:52:05;;;;;;;0.10;0.10;;;;;;;;;;5019902;28;20196;-86
2023/10/13 08:54:39;;;;;;;0.28;0.28;;;;;;;;;;5021834;28;20199;-87
2023/10/13 08:57:19;;;;;;;0.10;0.10;;;;;;;;;;5008557;28;20218;-86
2023/10/13 08:59:53;;;;;;;0.10;0.10;;;;;;;;;;5025577;28;20192;-89
2023/10/13 09:02:22;;;;;;;0.10;0.10;;;;;;;;;;5022383;28;20203;-88
2023/10/13 09:04:59;;;;;;;0.20;0.20;;;;;;;;;;5006811;28;20560;-88
2023/10/13 09:07:25;;;;;;;0.10;0.10;;;;;;;;;;5008676;28;20208;-88
2023/10/13 09:13:00;;;;;;;0.10;0.10;;;;;;;;;;5025015;28;20200;-88
2023/10/13 09:15:59;;;;;;;0.22;0.22;;;;;;;;;;5007324;28;20198;-89
2023/10/13 09:18:41;;;;;;;0.30;0.30;;;;;;;;;;5025005;28;20192;-88
2023/10/13 09:24:10;;;;;;;0.30;0.30;;;;;;;;;;5033385;28;20242;-88
2023/10/13 09:26:36;;;;;;;0.40;0.40;;;;;;;;;;5026493;28;20220;-90
2023/10/13 09:29:07;;;;;;;0.50;0.50;;;;;;;;;;5025542;28;20274;-91
2023/10/13 09:31:33;;;;;;;0.38;0.38;;;;;;;;;;5015840;28;20268;-87
2023/10/13 09:34:00;;;;;;;0.50;0.50;;;;;;;;;;5013479;28;20180;-88
2023/10/13 09:36:27;;;;;;;0.47;0.47;;;;;;;;;;5016630;28;20227;-88
2023/10/13 09:41:40;;;;;;;0.60;0.60;;;;;;;;;;5014507;28;20250;-87
2023/10/13 09:44:08;;;;;;;0.50;0.50;;;;;;;;;;5014259;28;20181;-87
2023/10/13 09:46:41;;;;;;;0.53;0.53;;;;;;;;;;4996411;28;20172;-89
2023/10/13 09:49:22;;;;;;;0.60;0.60;;;;;;;;;;4996045;28;20579;-90
2023/10/13 09:51:48;;;;;;;0.40;0.40;;;;;;;;;;5011884;28;20201;-90
2023/10/13 09:54:19;;;;;;;0.32;0.32;;;;;;;;;;4994923;28;20638;-89
2023/10/13 09:56:56;;;;;;;0.47;0.47;;;;;;;;;;4995129;28;20181;-92
2023/10/13 09:59:34;;;;;;;0.40;0.40;;;;;;;;;;5013331;28;20207;-88
2023/10/13 10:02:08;;;;;;;0.32;0.32;;;;;;;;;;5013250;28;20272;-87
2023/10/13 10:04:42;;;;;;;0.50;0.50;;;;;;;;;;5012422;28;20246;-88
2023/10/13 10:07:08;;;;;;;0.50;0.50;;;;;;;;;;5012070;28;20176;-88
2023/10/13 10:09:34;;;;;;;0.40;0.40;;;;;;;;;;5012153;28;20176;-86
2023/10/13 10:12:08;;;;;;;0.10;0.10;;;;;;;;;;4993835;28;20617;-86
2023/10/13 10:14:56;;;;;;;0.30;0.30;;;;;;;;;;4995024;28;20173;-90
2023/10/13 10:17:22;;;;;;;0.20;0.20;;;;;;;;;;4991928;28;20449;-90
2023/10/13 10:19:55;;;;;;;0.10;0.10;;;;;;;;;;4995369;28;20602;-87
2023/10/13 10:22:27;;;;;;;0.30;0.30;;;;;;;;;;5011687;28;20192;-88
2023/10/13 10:24:59;;;;;;;0.20;0.20;;;;;;;;;;5014837;28;20174;-91
2023/10/13 10:27:30;;;;;;;0.28;0.28;;;;;;;;;;4998123;28;20184;-90
2023/10/13 10:29:56;;;;;;;0.30;0.30;;;;;;;;;;4995700;28;20178;-90
2023/10/13 10:32:32;;;;;;;0.20;0.20;;;;;;;;;;4994069;28;20201;-87
2023/10/13 10:35:13;;;;;;;0.30;0.30;;;;;;;;;;5012074;28;20684;-91
2023/10/13 10:37:46;;;;;;;0.20;0.20;;;;;;;;;;5017453;28;20184;-89
2023/10/13 10:40:31;;;;;;;0.30;0.30;;;;;;;;;;4994713;28;20564;-90
2023/10/13 10:43:00;;;;;;;0.20;0.20;;;;;;;;;;5011649;28;20200;-87
2023/10/13 10:45:32;;;;;;;0.10;0.10;;;;;;;;;;5011686;28;20177;-89
2023/10/13 10:47:58;;;;;;;0.10;0.10;;;;;;;;;;4994366;28;20208;-91
2023/10/13 10:50:34;;;;;;;0.10;0.10;;;;;;;;;;4994265;28;20750;-90
2023/10/13 10:53:01;;;;;;;0.10;0.10;;;;;;;;;;5012102;28;20323;-87
2023/10/13 10:55:28;;;;;;;0.10;0.10;;;;;;;;;;5011797;28;20176;-90
2023/10/13 10:58:01;;;;;;;0.10;0.10;;;;;;;;;;5011700;28;20208;-93
2023/10/13 11:00:41;;;;;;;0.22;0.22;;;;;;;;;;5011392;28;20196;-89
2023/10/13 11:03:08;;;;;;;0.20;0.20;;;;;;;;;;5011572;28;20614;-88
2023/10/13 11:05:43;;;;;;;0.10;0.10;;;;;;;;;;5015343;28;20178;-91
2023/10/13 11:08:25;;;;;;;0.30;0.30;;;;;;;;;;5009092;28;20257;-90
2023/10/13 11:10:51;;;;;;;0.50;0.50;;;;;;;;;;5009930;28;20160;-88
2023/10/13 11:13:30;;;;;;;0.52;0.52;;;;;;;;;;5019569;28;20203;-88
2023/10/13 11:15:57;;;;;;;0.50;0.50;;;;;;;;;;5015405;28;20180;-88
2023/10/13 11:18:33;;;;;;;0.47;0.47;;;;;;;;;;5015198;28;20662;-92
2023/10/13 11:20:59;;;;;;;0.40;0.40;;;;;;;;;;5014740;28;20185;-92
2023/10/13 11:23:25;;;;;;;0.30;0.30;;;;;;;;;;5015558;28;20200;-91
2023/10/13 11:26:00;;;;;;;0.43;0.43;;;;;;;;;;5014822;28;20687;-89
2023/10/13 11:28:28;;;;;;;0.60;0.60;;;;;;;;;;5014704;28;20809;-91
2023/10/13 11:31:10;;;;;;;0.30;0.30;;;;;;;;;;5014611;28;20185;-90
2023/10/13 11:33:37;;;;;;;0.40;0.40;;;;;;;;;;4997290;28;20231;-89
2023/10/13 11:36:03;;;;;;;0.40;0.40;;;;;;;;;;5014978;28;20192;-88
2023/10/13 11:38:49;;;;;;;0.60;0.60;;;;;;;;;;5014543;28;20673;-87
2023/10/13 11:41:20;;;;;;;0.40;0.40;;;;;;;;;;5014229;28;20216;-87
2023/10/13 11:44:07;;;;;;;0.50;0.50;;;;;;;;;;5014227;28;20172;-87
2023/10/13 11:49:17;;;;;;;0.20;0.20;;;;;;;;;;5014467;28;20586;-87
2023/10/13 11:51:47;;;;;;;0.15;0.15;;;;;;;;;;5014233;28;20199;-90
2023/10/13 11:54:15;;;;;;;0.10;0.10;;;;;;;;;;5015052;28;20171;-88
2023/10/13 11:56:41;;;;;;;0.10;0.10;;;;;;;;;;5015026;28;20318;-88
2023/10/13 11:59:15;;;;;;;0.20;0.20;;;;;;;;;;5014718;28;20235;-91
2023/10/13 12:04:33;;;;;;;0.13;0.13;;;;;;;;;;5022793;28;20186;-89
2023/10/13 12:07:19;;;;;;;0.40;0.40;;;;;;;;;;5010463;28;20165;-89
2023/10/13 12:12:21;;;;;;;0.40;0.40;;;;;;;;;;5019780;28;20195;-89
2023/10/13 12:14:55;;;;;;;0.30;0.30;;;;;;;;;;5014961;28;20179;-90
2023/10/13 12:17:39;;;;;;;0.20;0.20;;;;;;;;;;5015675;28;20259;-91
2023/10/13 12:20:10;;;;;;;0.30;0.30;;;;;;;;;;5016552;28;20219;-89
2023/10/13 12:22:38;;;;;;;0.38;0.38;;;;;;;;;;4996570;28;20570;-90
2023/10/13 12:25:44;;;;;;;0.25;0.25;;;;;;;;;;4996691;28;20299;-88
2023/10/13 12:28:18;;;;;;;0.35;0.35;;;;;;;;;;5011814;28;20219;-92
2023/10/13 12:30:53;;;;;;;0.47;0.47;;;;;;;;;;4995975;28;20255;-88
2023/10/13 12:33:27;;;;;;;0.30;0.30;;;;;;;;;;5013967;28;20186;-89
2023/10/13 12:52:19;;;;;;;0.50;0.50;;;;;;;;;;5013285;28;20246;-89
2023/10/13 12:54:47;;;;;;;0.40;0.40;;;;;;;;;;5034495;28;20165;-89
2023/10/13 12:57:16;;;;;;;0.55;0.55;;;;;;;;;;5021325;28;20180;-89
2023/10/13 12:59:43;;;;;;;0.55;0.55;;;;;;;;;;5020159;28;20264;-86
2023/10/13 13:02:14;;;;;;;0.50;0.50;;;;;;;;;;5037983;28;20177;-89
2023/10/13 13:04:48;;;;;;;0.47;0.47;;;;;;;;;;5036056;28;20176;-87
2023/10/13 13:07:14;;;;;;;0.50;0.50;;;;;;;;;;5020063;28;20169;-90
2023/10/13 13:09:41;;;;;;;0.60;0.60;;;;;;;;;;5024761;28;20203;-90
2023/10/13 13:12:07;;;;;;;0.43;0.43;;;;;;;;;;5013134;28;20208;-91
2023/10/13 13:14:34;;;;;;;0.52;0.52;;;;;;;;;;5014181;28;20177;-89
2023/10/13 13:17:07;;;;;;;0.50;0.50;;;;;;;;;;5014232;28;20608;-88
2023/10/13 13:19:38;;;;;;;0.43;0.43;;;;;;;;;;4995823;28;20187;-90
2023/10/13 13:22:05;;;;;;;0.40;0.40;;;;;;;;;;5013605;28;20203;-90
2023/10/13 13:24:31;;;;;;;0.60;0.60;;;;;;;;;;5013536;28;20231;-89
2023/10/13 13:27:03;;;;;;;0.50;0.50;;;;;;;;;;4996396;28;20278;-88
2023/10/13 13:29:30;;;;;;;0.70;0.70;;;;;;;;;;4996290;28;20223;-87
2023/10/13 13:31:57;;;;;;;0.60;0.60;;;;;;;;;;4996858;28;20631;-88
2023/10/13 13:34:23;;;;;;;0.60;0.60;;;;;;;;;;5015009;28;20180;-89
2023/10/13 13:36:52;;;;;;;0.60;0.60;;;;;;;;;;5015327;28;20339;-90
2023/10/13 13:39:28;;;;;;;0.57;0.57;;;;;;;;;;5004221;28;20336;-87
2023/10/13 13:41:56;;;;;;;0.65;0.65;;;;;;;;;;5036200;28;20188;-88
2023/10/13 13:44:28;;;;;;;0.45;0.45;;;;;;;;;;5034549;28;20165;-92
2023/10/13 13:46:56;;;;;;;0.60;0.60;;;;;;;;;;5016862;28;20216;-88
2023/10/13 13:49:29;;;;;;;0.63;0.63;;;;;;;;;;5013463;28;20631;-88
2023/10/13 13:51:56;;;;;;;0.60;0.60;;;;;;;;;;5012789;28;20200;-89
2023/10/13 13:54:22;;;;;;;0.53;0.53;;;;;;;;;;5013230;28;20169;-90
2023/10/13 13:56:49;;;;;;;0.53;0.53;;;;;;;;;;5012921;28;20571;-88
2023/10/13 13:59:16;;;;;;;0.50;0.50;;;;;;;;;;5012772;28;20227;-88
2023/10/13 14:01:44;;;;;;;0.50;0.50;;;;;;;;;;5013365;28;20227;-90
2023/10/13 14:04:11;;;;;;;0.60;0.60;;;;;;;;;;5012820;28;20180;-86
2023/10/13 14:06:37;;;;;;;0.50;0.50;;;;;;;;;;5014450;28;20179;-88
2023/10/13 14:09:14;;;;;;;0.50;0.50;;;;;;;;;;4995576;28;20590;-89
2023/10/13 14:14:12;;;;;;;0.53;0.53;;;;;;;;;;5014091;28;20646;-89
2023/10/13 14:16:44;;;;;;;0.57;0.57;;;;;;;;;;4995340;28;20180;-89
2023/10/13 14:19:10;;;;;;;0.30;0.30;;;;;;;;;;5012968;28;20195;-88
2023/10/13 14:21:37;;;;;;;0.50;0.50;;;;;;;;;;5012044;28;20207;-92
2023/10/13 14:24:06;;;;;;;0.60;0.60;;;;;;;;;;5012508;28;20199;-91
2023/10/13 14:26:33;;;;;;;0.40;0.40;;;;;;;;;;5026406;28;20168;-90
2023/10/13 14:29:03;;;;;;;0.57;0.57;;;;;;;;;;5015213;28;20239;-87
2023/10/13 14:31:30;;;;;;;0.50;0.50;;;;;;;;;;5028071;28;20220;-86
2023/10/13 14:33:59;;;;;;;0.50;0.50;;;;;;;;;;5016381;28;20534;-86
2023/10/13 14:36:28;;;;;;;0.50;0.50;;;;;;;;;;5013703;28;20264;-87
2023/10/13 14:38:54;;;;;;;0.40;0.40;;;;;;;;;;5016050;28;20185;-87
2023/10/13 14:41:20;;;;;;;0.40;0.40;;;;;;;;;;5016184;28;20200;-90
2023/10/13 14:43:50;;;;;;;0.50;0.50;;;;;;;;;;5016364;28;20173;-89
2023/10/13 14:46:16;;;;;;;0.60;0.60;;;;;;;;;;5016099;28;20192;-90
2023/10/13 14:48:42;;;;;;;0.70;0.70;;;;;;;;;;4998142;28;20205;-87
2023/10/13 14:51:18;;;;;;;0.60;0.60;;;;;;;;;;5016681;28;20188;-88
2023/10/13 14:53:44;;;;;;;0.30;0.30;;;;;;;;;;5011639;28;20179;-88
2023/10/13 14:56:14;;;;;;;0.50;0.50;;;;;;;;;;5027667;28;20512;-88
2023/10/13 14:58:42;;;;;;;0.50;0.50;;;;;;;;;;5003371;28;20658;-89
2023/10/13 15:01:17;;;;;;;0.50;0.50;;;;;;;;;;5015312;28;20569;-88
2023/10/13 15:03:50;;;;;;;0.50;0.50;;;;;;;;;;5014137;28;20208;-89
2023/10/13 15:06:28;;;;;;;0.30;0.30;;;;;;;;;;5015798;28;20188;-87
2023/10/13 15:08:55;;;;;;;0.50;0.50;;;;;;;;;;5015535;28;20270;-87
2023/10/13 15:11:26;;;;;;;0.40;0.40;;;;;;;;;;5015003;28;20618;-86
2023/10/13 15:13:52;;;;;;;0.40;0.40;;;;;;;;;;5016034;28;20192;-89
2023/10/13 15:16:20;;;;;;;0.40;0.40;;;;;;;;;;5017583;28;20207;-87
2023/10/13 15:18:46;;;;;;;0.53;0.53;;;;;;;;;;5019786;28;20200;-88
2023/10/13 15:21:19;;;;;;;0.40;0.40;;;;;;;;;;5015088;28;20200;-86
2023/10/13 15:23:45;;;;;;;0.30;0.30;;;;;;;;;;5015835;28;20215;-87
2023/10/13 15:26:14;;;;;;;0.40;0.40;;;;;;;;;;5015210;28;20211;-90
2023/10/13 15:28:55;;;;;;;0.40;0.40;;;;;;;;;;5015176;28;20644;-87
2023/10/13 15:34:00;;;;;;;0.43;0.43;;;;;;;;;;5014885;28;20173;-89
2023/10/13 15:36:26;;;;;;;0.47;0.47;;;;;;;;;;4997747;28;20208;-87
2023/10/13 15:38:53;;;;;;;0.50;0.50;;;;;;;;;;5015067;28;20180;-89
2023/10/13 15:41:29;;;;;;;0.37;0.37;;;;;;;;;;5014568;28;20201;-87
2023/10/13 15:43:55;;;;;;;0.47;0.47;;;;;;;;;;4997387;28;20176;-87
2023/10/13 15:46:22;;;;;;;0.50;0.50;;;;;;;;;;5015394;28;20181;-87
2023/10/13 15:48:48;;;;;;;0.40;0.40;;;;;;;;;;5015763;28;20774;-88
2023/10/13 15:51:15;;;;;;;0.50;0.50;;;;;;;;;;5014325;28;20200;-90
2023/10/13 15:53:43;;;;;;;0.47;0.47;;;;;;;;;;5014417;28;20183;-89
2023/10/13 15:56:12;;;;;;;0.40;0.40;;;;;;;;;;5015286;28;20168;-88
2023/10/13 15:58:39;;;;;;;0.30;0.30;;;;;;;;;;4997109;28;20250;-88
2023/10/13 16:01:07;;;;;;;0.40;0.40;;;;;;;;;;5014297;28;20180;-90
2023/10/13 16:03:33;;;;;;;0.50;0.50;;;;;;;;;;5014694;28;20566;-87
2023/10/13 16:06:04;;;;;;;0.40;0.40;;;;;;;;;;5014415;28;20272;-91
2023/10/13 16:08:31;;;;;;;0.30;0.30;;;;;;;;;;5014103;28;20215;-88
2023/10/13 16:11:07;;;;;;;0.30;0.30;;;;;;;;;;5014499;28;20172;-88
2023/10/13 16:13:32;;;;;;;0.50;0.50;;;;;;;;;;5015264;28;20202;-86
2023/10/13 16:16:00;;;;;;;0.40;0.40;;;;;;;;;;5014461;28;20181;-88
2023/10/13 16:18:26;;;;;;;0.40;0.40;;;;;;;;;;5014725;28;20196;-88
2023/10/13 16:20:54;;;;;;;0.43;0.43;;;;;;;;;;5012894;28;20732;-89
2023/10/13 16:23:20;;;;;;;0.30;0.30;;;;;;;;;;5014347;28;20184;-89
2023/10/13 16:25:46;;;;;;;0.50;0.50;;;;;;;;;;4996730;28;20175;-87
2023/10/13 16:28:12;;;;;;;0.47;0.47;;;;;;;;;;5014076;28;20295;-87
2023/10/13 16:30:39;;;;;;;0.43;0.43;;;;;;;;;;5013515;28;20199;-89
2023/10/13 16:33:05;;;;;;;0.30;0.30;;;;;;;;;;5013971;28;20308;-88
2023/10/13 16:35:33;;;;;;;0.40;0.40;;;;;;;;;;5013655;28;20346;-89
2023/10/13 16:38:06;;;;;;;0.40;0.40;;;;;;;;;;5013767;28;20555;-87
2023/10/13 16:40:32;;;;;;;0.30;0.30;;;;;;;;;;4995812;28;20188;-86
2023/10/13 16:43:00;;;;;;;0.37;0.37;;;;;;;;;;5013680;28;20250;-87
2023/10/13 16:45:31;;;;;;;0.30;0.30;;;;;;;;;;5013380;28;20255;-88
2023/10/13 16:47:57;;;;;;;0.30;0.30;;;;;;;;;;5013534;28;20208;-87
2023/10/13 16:50:23;;;;;;;0.40;0.40;;;;;;;;;;5014688;28;20176;-87
2023/10/13 16:52:50;;;;;;;0.30;0.30;;;;;;;;;;5013997;28;20283;-87
2023/10/13 16:55:17;;;;;;;0.20;0.20;;;;;;;;;;5013631;28;20187;-87
2023/10/13 16:57:52;;;;;;;0.40;0.40;;;;;;;;;;5013956;28;20208;-86
2023/10/13 17:00:25;;;;;;;0.40;0.40;;;;;;;;;;5013860;28;20210;-86
2023/10/13 17:02:52;;;;;;;0.40;0.40;;;;;;;;;;5012849;28;20211;-86
2023/10/13 17:05:18;;;;;;;0.30;0.30;;;;;;;;;;4996762;28;20180;-87
2023/10/13 17:07:47;;;;;;;0.30;0.30;;;;;;;;;;5015118;28;20232;-88
2023/10/13 17:10:14;;;;;;;0.43;0.43;;;;;;;;;;5015656;28;20279;-88
2023/10/13 17:12:42;;;;;;;0.30;0.30;;;;;;;;;;5032076;28;20258;-89
2023/10/13 17:15:19;;;;;;;0.30;0.30;;;;;;;;;;5034170;28;20168;-86
2023/10/13 17:17:45;;;;;;;0.20;0.20;;;;;;;;;;5013471;28;20271;-88
2023/10/13 17:20:11;;;;;;;0.30;0.30;;;;;;;;;;5029883;28;20176;-87
2023/10/13 17:22:37;;;;;;;0.30;0.30;;;;;;;;;;5031087;28;20212;-87
2023/10/13 17:25:04;;;;;;;0.40;0.40;;;;;;;;;;5012562;28;20184;-89
2023/10/13 17:27:36;;;;;;;0.30;0.30;;;;;;;;;;5023875;28;20184;-87
2023/10/13 17:30:05;;;;;;;0.30;0.30;;;;;;;;;;5013946;28;20606;-88
2023/10/13 17:32:32;;;;;;;0.30;0.30;;;;;;;;;;5013086;28;20295;-87
2023/10/13 17:35:00;;;;;;;0.40;0.40;;;;;;;;;;4995729;28;20177;-89
2023/10/13 17:37:26;;;;;;;0.30;0.30;;;;;;;;;;5023223;28;20181;-87
2023/10/13 17:39:52;;;;;;;0.30;0.30;;;;;;;;;;5023996;28;20271;-86
2023/10/13 17:42:18;;;;;;;0.30;0.30;;;;;;;;;;5013798;28;20242;-86
2023/10/13 17:44:44;;;;;;;0.30;0.30;;;;;;;;;;5014560;28;20555;-86
2023/10/13 17:47:14;;;;;;;0.33;0.33;;;;;;;;;;5015298;28;20267;-86
2023/10/13 17:49:40;;;;;;;0.20;0.20;;;;;;;;;;4997141;28;20712;-87
2023/10/13 17:52:07;;;;;;;0.20;0.20;;;;;;;;;;4997869;28;20295;-86
2023/10/13 17:54:33;;;;;;;0.30;0.30;;;;;;;;;;5017352;28;20200;-87
2023/10/13 17:57:00;;;;;;;0.30;0.30;;;;;;;;;;5037594;28;20173;-85
2023/10/13 17:59:25;;;;;;;0.30;0.30;;;;;;;;;;5037520;28;20207;-86